Ernest Campbell — WDB3005 — position and weather

sailwx.info

Track history (hours):
 
Tides and Currents Weather Stations Pressure Air Temp Water Temp Dewpoint Dewpoint Depression Visibility Wind Speed Wind Dir Waves Ship Positions

Ernest Campbell

More information available from US FCC via Universal Licensing System and Coast Guard Vessel Documentation Center.

Last reported at 2014-Sep-30 23:33 UTC. Time now 2014-Oct-01 00:04 UTC.
Position N 47°34' W 122°21'.

Length 33 m; draft 4.6 m.

Type: Tow > 200 m length. MMSI: 366882320.

Date/timePositionNaut miles runAvg speedWind from/ knotsBaromVisibWave heightAir tempDewpointWater temp
2014-Sep-30 23:33N 47°34' W 122°21'0 0.0
2014-Sep-30 22:33N 47°34' W 122°21'0 0.0
2014-Sep-30 21:45N 47°34' W 122°21'0 0.0
2014-Sep-30 21:33N 47°34' W 122°21'0 0.0
2014-Sep-30 21:30N 47°34' W 122°21'3 3.7
2014-Sep-30 20:33N 47°38' W 122°23'1 1.1
2014-Sep-30 19:33N 47°37' W 122°23'6 5.5
2014-Sep-30 18:33N 47°41' W 122°28'7 7.1
2014-Sep-30 17:33N 47°48' W 122°28'8 7.7
2014-Sep-30 16:33N 47°55' W 122°31'10 8.6
2014-Sep-30 15:24N 48°03' W 122°40'7 8.5
2014-Sep-30 14:32N 48°10' W 122°46'8 8.6
2014-Sep-30 13:33N 48°11' W 122°58'9 9.0
2014-Sep-30 12:33N 48°12' W 123°11'8 7.8
2014-Sep-30 11:33N 48°12' W 123°23'7 7.2
2014-Sep-30 10:33N 48°12' W 123°34'6 6.1
2014-Sep-30 09:33N 48°12' W 123°43'6 6.4
2014-Sep-30 08:33N 48°12' W 123°53'6 6.2
2014-Sep-30 07:33N 48°14' W 124°02'6 6.2
2014-Sep-30 06:33N 48°17' W 124°10'6 5.6
2014-Sep-30 05:32N 48°19' W 124°18'6 6.1
2014-Sep-30 04:33N 48°22' W 124°26'7 7.2
2014-Sep-30 03:33N 48°25' W 124°36'7 7.2
2014-Sep-30 02:33N 48°26' W 124°47'9 7.8
2014-Sep-30 01:26N 48°20' W 124°57'7 7.7
2014-Sep-30 00:31N 48°14' W 125°00'124 6.8
2014-Sep-29 06:13N 46°13' W 124°14'5 6.8
2014-Sep-29 05:33N 46°14' W 124°07'7 6.6
2014-Sep-29 04:33N 46°13' W 123°58'9 8.9
2014-Sep-29 03:33N 46°13' W 123°45'10 9.4
2014-Sep-29 02:32N 46°16' W 123°32'4 0.2
2014-Sep-27 21:21N 46°14' W 123°26'6 7.0
2014-Sep-27 20:33N 46°15' W 123°33'8 7.7
2014-Sep-27 19:33N 46°14' W 123°44'7 7.5
2014-Sep-27 18:33N 46°11' W 123°55'6 5.7
2014-Sep-27 17:33N 46°15' W 124°01'4 3.7
2014-Sep-27 16:33N 46°14' W 124°06'128 4.8
2014-Sep-26 14:10N 48°17' W 125°02'4 5.8
2014-Sep-26 13:33N 48°20' W 124°59'5 5.5
2014-Sep-26 12:33N 48°25' W 124°56'5 4.9
2014-Sep-26 11:33N 48°27' W 124°49'4 4.4
2014-Sep-26 10:33N 48°26' W 124°43'6 5.6
2014-Sep-26 09:33N 48°24' W 124°35'5 5.4
2014-Sep-26 08:33N 48°22' W 124°28'6 6.4
2014-Sep-26 07:33N 48°19' W 124°19'7 7.2
2014-Sep-26 06:33N 48°16' W 124°09'6 6.2
2014-Sep-26 05:33N 48°13' W 124°01'7 6.9
2014-Sep-26 04:31N 48°12' W 123°50'7 7.1
2014-Sep-26 03:33N 48°12' W 123°40'7 6.6
2014-Sep-26 02:33N 48°11' W 123°30'5 5.4
2014-Sep-26 01:33N 48°08' W 123°24'2 2.0
2014-Sep-26 00:33N 48°08' W 123°26'0 0.0
2014-Sep-25 23:30N 48°08' W 123°26'0 0.0
2014-Sep-25 22:30N 48°08' W 123°26'0 0.0
2014-Sep-25 21:33N 48°08' W 123°26'0 0.0
2014-Sep-25 20:33N 48°08' W 123°26'0 0.0
2014-Sep-25 19:33N 48°08' W 123°26'0 0.0
2014-Sep-25 18:33N 48°08' W 123°26'0 0.0
2014-Sep-25 17:33N 48°08' W 123°26'0 0.0
2014-Sep-25 16:33N 48°08' W 123°26'0 0.0
2014-Sep-25 15:33N 48°08' W 123°26'0 0.0
2014-Sep-25 14:33N 48°08' W 123°26'0 0.0
2014-Sep-25 13:33N 48°08' W 123°26'0 0.0
2014-Sep-25 12:33N 48°08' W 123°26'0 0.0
2014-Sep-25 11:33N 48°08' W 123°26'0 0.0
2014-Sep-25 10:33N 48°08' W 123°26'0 0.0
2014-Sep-25 09:33N 48°08' W 123°26'0 0.0
2014-Sep-25 08:33N 48°08' W 123°26'0 0.0
2014-Sep-25 07:33N 48°08' W 123°26'0 0.0
2014-Sep-25 06:33N 48°08' W 123°26'0 0.0
2014-Sep-25 05:33N 48°08' W 123°26'0 0.0
2014-Sep-25 04:33N 48°08' W 123°26'0 0.0
2014-Sep-25 03:32N 48°08' W 123°26'0 0.0
2014-Sep-25 02:32N 48°08' W 123°26'0 0.0
2014-Sep-25 01:32N 48°08' W 123°26'0 0.0
2014-Sep-25 00:32N 48°08' W 123°26'0 0.0
2014-Sep-24 23:32N 48°08' W 123°26'0 0.0
2014-Sep-24 22:32N 48°08' W 123°26'0 0.0
2014-Sep-24 21:32N 48°08' W 123°26'0 0.1
2014-Sep-24 20:29N 48°08' W 123°26'2 2.1
2014-Sep-24 19:33N 48°08' W 123°23'6 6.2
2014-Sep-24 18:33N 48°12' W 123°16'9 7.3
2014-Sep-24 17:23N 48°17' W 123°06'6 7.6
2014-Sep-24 16:33N 48°21' W 122°58'7 7.0
2014-Sep-24 15:33N 48°24' W 122°49'6 6.4
2014-Sep-24 14:33N 48°30' W 122°45'6 5.9
2014-Sep-24 13:33N 48°36' W 122°45'5 5.0
2014-Sep-24 12:33N 48°41' W 122°44'4 4.3
2014-Sep-24 11:33N 48°45' W 122°47'5 4.8
2014-Sep-24 10:31N 48°50' W 122°46'1 0.1
2014-Sep-23 18:04N 48°50' W 122°47'0 0.3
2014-Sep-23 17:16N 48°50' W 122°47'1 0.8
2014-Sep-23 15:25N 48°51' W 122°49'1 1.5
2014-Sep-23 14:34N 48°51' W 122°47'1 0.7
2014-Sep-23 13:34N 48°51' W 122°48'2 2.2
2014-Sep-23 12:33N 48°50' W 122°46'4 3.9
2014-Sep-23 11:33N 48°46' W 122°45'5 5.3
2014-Sep-23 10:34N 48°41' W 122°42'5 5.1
2014-Sep-23 09:33N 48°36' W 122°45'5 5.4
2014-Sep-23 08:33N 48°31' W 122°44'5 4.7
2014-Sep-23 07:33N 48°26' W 122°44'5 4.0
2014-Sep-23 06:17N 48°21' W 122°45'4 4.2
2014-Sep-23 05:23N 48°17' W 122°47'20 6.3
2014-Sep-23 02:17N 47°59' W 122°35'5 7.4
2014-Sep-23 01:33N 47°56' W 122°29'6 6.4
2014-Sep-23 00:33N 47°49' W 122°27'6 6.3
2014-Sep-22 23:34N 47°43' W 122°26'6 6.3
2014-Sep-22 22:33N 47°37' W 122°24'2 2.0
2014-Sep-22 21:20N 47°35' W 122°21'1 1.3
2014-Sep-22 20:32N 47°34' W 122°21'0 0.0
2014-Sep-22 19:32N 47°34' W 122°21'0 0.0
2014-Sep-22 18:20N 47°34' W 122°21'0 0.0
2014-Sep-22 17:32N 47°34' W 122°21'0 0.0
2014-Sep-22 16:29N 47°34' W 122°21'0 0.0
2014-Sep-22 14:29N 47°34' W 122°21'0 0.0
2014-Sep-22 12:32N 47°34' W 122°21'0 0.0
2014-Sep-22 11:32N 47°34' W 122°21'0 0.0
2014-Sep-22 10:32N 47°34' W 122°21'0 0.0
2014-Sep-22 09:14N 47°34' W 122°21'0 0.0
2014-Sep-22 08:26N 47°34' W 122°21'0 0.0
2014-Sep-22 07:32N 47°34' W 122°21'0 0.0
2014-Sep-22 06:32N 47°34' W 122°21'0 0.0
2014-Sep-22 05:32N 47°34' W 122°21'0 0.0
2014-Sep-22 04:32N 47°34' W 122°21'0 0.0
2014-Sep-22 03:29N 47°34' W 122°21'0 0.0
2014-Sep-22 02:26N 47°34' W 122°21'0 0.0
2014-Sep-22 01:23N 47°34' W 122°21'0 0.0
2014-Sep-22 00:20N 47°34' W 122°21'0 0.0
2014-Sep-21 23:32N 47°34' W 122°21'0 0.0
2014-Sep-21 22:29N 47°34' W 122°21'0 0.0
2014-Sep-21 21:29N 47°34' W 122°21'0 0.0
2014-Sep-21 15:25N 47°34' W 122°21'0 0.0
2014-Sep-21 14:31N 47°34' W 122°21'0 0.0
2014-Sep-21 13:31N 47°34' W 122°21'0 0.0
2014-Sep-21 12:31N 47°34' W 122°21'0 0.0
2014-Sep-21 11:31N 47°34' W 122°21'0 0.0
2014-Sep-21 10:31N 47°34' W 122°21'0 0.0
2014-Sep-21 09:31N 47°34' W 122°21'0 0.0
2014-Sep-21 08:31N 47°34' W 122°21'0 0.0
2014-Sep-21 07:10N 47°34' W 122°21'0 0.0
2014-Sep-21 06:28N 47°34' W 122°21'0 0.0
2014-Sep-21 05:31N 47°34' W 122°21'0 0.0
2014-Sep-21 04:31N 47°34' W 122°21'0 0.0
2014-Sep-21 03:31N 47°34' W 122°21'0 0.0
2014-Sep-21 02:31N 47°34' W 122°21'0 0.0
2014-Sep-21 01:31N 47°34' W 122°21'0 0.0
2014-Sep-21 00:28N 47°34' W 122°21'  
Track history (hours):
 
Tides and Currents Weather Stations Pressure Air Temp Water Temp Dewpoint Dewpoint Depression Visibility Wind Speed Wind Dir Waves Ship Positions

Ernest Campbell

More information available from US FCC via Universal Licensing System and Coast Guard Vessel Documentation Center.

Last reported at 2014-Sep-30 23:33 UTC. Time now 2014-Oct-01 00:04 UTC.
Position N 47°34' W 122°21'.

Length 33 m; draft 4.6 m.

Type: Tow > 200 m length. MMSI: 366882320.

Date/timePositionNaut miles runAvg speedWind from/ knotsBaromVisibWave heightAir tempDewpointWater temp
2014-Sep-30 23:33N 47°34' W 122°21'0 0.0
2014-Sep-30 22:33N 47°34' W 122°21'0 0.0
2014-Sep-30 21:45N 47°34' W 122°21'0 0.0
2014-Sep-30 21:33N 47°34' W 122°21'0 0.0
2014-Sep-30 21:30N 47°34' W 122°21'3 3.7
2014-Sep-30 20:33N 47°38' W 122°23'1 1.1
2014-Sep-30 19:33N 47°37' W 122°23'6 5.5
2014-Sep-30 18:33N 47°41' W 122°28'7 7.1
2014-Sep-30 17:33N 47°48' W 122°28'8 7.7
2014-Sep-30 16:33N 47°55' W 122°31'10 8.6
2014-Sep-30 15:24N 48°03' W 122°40'7 8.5
2014-Sep-30 14:32N 48°10' W 122°46'8 8.6
2014-Sep-30 13:33N 48°11' W 122°58'9 9.0
2014-Sep-30 12:33N 48°12' W 123°11'8 7.8
2014-Sep-30 11:33N 48°12' W 123°23'7 7.2
2014-Sep-30 10:33N 48°12' W 123°34'6 6.1
2014-Sep-30 09:33N 48°12' W 123°43'6 6.4
2014-Sep-30 08:33N 48°12' W 123°53'6 6.2
2014-Sep-30 07:33N 48°14' W 124°02'6 6.2
2014-Sep-30 06:33N 48°17' W 124°10'6 5.6
2014-Sep-30 05:32N 48°19' W 124°18'6 6.1
2014-Sep-30 04:33N 48°22' W 124°26'7 7.2
2014-Sep-30 03:33N 48°25' W 124°36'7 7.2
2014-Sep-30 02:33N 48°26' W 124°47'9 7.8
2014-Sep-30 01:26N 48°20' W 124°57'7 7.7
2014-Sep-30 00:31N 48°14' W 125°00'124 6.8
2014-Sep-29 06:13N 46°13' W 124°14'5 6.8
2014-Sep-29 05:33N 46°14' W 124°07'7 6.6
2014-Sep-29 04:33N 46°13' W 123°58'9 8.9
2014-Sep-29 03:33N 46°13' W 123°45'10 9.4
2014-Sep-29 02:32N 46°16' W 123°32'4 0.2
2014-Sep-27 21:21N 46°14' W 123°26'6 7.0
2014-Sep-27 20:33N 46°15' W 123°33'8 7.7
2014-Sep-27 19:33N 46°14' W 123°44'7 7.5
2014-Sep-27 18:33N 46°11' W 123°55'6 5.7
2014-Sep-27 17:33N 46°15' W 124°01'4 3.7
2014-Sep-27 16:33N 46°14' W 124°06'128 4.8
2014-Sep-26 14:10N 48°17' W 125°02'4 5.8
2014-Sep-26 13:33N 48°20' W 124°59'5 5.5
2014-Sep-26 12:33N 48°25' W 124°56'5 4.9
2014-Sep-26 11:33N 48°27' W 124°49'4 4.4
2014-Sep-26 10:33N 48°26' W 124°43'6 5.6
2014-Sep-26 09:33N 48°24' W 124°35'5 5.4
2014-Sep-26 08:33N 48°22' W 124°28'6 6.4
2014-Sep-26 07:33N 48°19' W 124°19'7 7.2
2014-Sep-26 06:33N 48°16' W 124°09'6 6.2
2014-Sep-26 05:33N 48°13' W 124°01'7 6.9
2014-Sep-26 04:31N 48°12' W 123°50'7 7.1
2014-Sep-26 03:33N 48°12' W 123°40'7 6.6
2014-Sep-26 02:33N 48°11' W 123°30'5 5.4
2014-Sep-26 01:33N 48°08' W 123°24'2 2.0
2014-Sep-26 00:33N 48°08' W 123°26'0 0.0
2014-Sep-25 23:30N 48°08' W 123°26'0 0.0
2014-Sep-25 22:30N 48°08' W 123°26'0 0.0
2014-Sep-25 21:33N 48°08' W 123°26'0 0.0
2014-Sep-25 20:33N 48°08' W 123°26'0 0.0
2014-Sep-25 19:33N 48°08' W 123°26'0 0.0
2014-Sep-25 18:33N 48°08' W 123°26'0 0.0
2014-Sep-25 17:33N 48°08' W 123°26'0 0.0
2014-Sep-25 16:33N 48°08' W 123°26'0 0.0
2014-Sep-25 15:33N 48°08' W 123°26'0 0.0
2014-Sep-25 14:33N 48°08' W 123°26'0 0.0
2014-Sep-25 13:33N 48°08' W 123°26'0 0.0
2014-Sep-25 12:33N 48°08' W 123°26'0 0.0
2014-Sep-25 11:33N 48°08' W 123°26'0 0.0
2014-Sep-25 10:33N 48°08' W 123°26'0 0.0
2014-Sep-25 09:33N 48°08' W 123°26'0 0.0
2014-Sep-25 08:33N 48°08' W 123°26'0 0.0
2014-Sep-25 07:33N 48°08' W 123°26'0 0.0
2014-Sep-25 06:33N 48°08' W 123°26'0 0.0
2014-Sep-25 05:33N 48°08' W 123°26'0 0.0
2014-Sep-25 04:33N 48°08' W 123°26'0 0.0
2014-Sep-25 03:32N 48°08' W 123°26'0 0.0
2014-Sep-25 02:32N 48°08' W 123°26'0 0.0
2014-Sep-25 01:32N 48°08' W 123°26'0 0.0
2014-Sep-25 00:32N 48°08' W 123°26'0 0.0
2014-Sep-24 23:32N 48°08' W 123°26'0 0.0
2014-Sep-24 22:32N 48°08' W 123°26'0 0.0
2014-Sep-24 21:32N 48°08' W 123°26'0 0.1
2014-Sep-24 20:29N 48°08' W 123°26'2 2.1
2014-Sep-24 19:33N 48°08' W 123°23'6 6.2
2014-Sep-24 18:33N 48°12' W 123°16'9 7.3
2014-Sep-24 17:23N 48°17' W 123°06'6 7.6
2014-Sep-24 16:33N 48°21' W 122°58'7 7.0
2014-Sep-24 15:33N 48°24' W 122°49'6 6.4
2014-Sep-24 14:33N 48°30' W 122°45'6 5.9
2014-Sep-24 13:33N 48°36' W 122°45'5 5.0
2014-Sep-24 12:33N 48°41' W 122°44'4 4.3
2014-Sep-24 11:33N 48°45' W 122°47'5 4.8
2014-Sep-24 10:31N 48°50' W 122°46'1 0.1
2014-Sep-23 18:04N 48°50' W 122°47'0 0.3
2014-Sep-23 17:16N 48°50' W 122°47'1 0.8
2014-Sep-23 15:25N 48°51' W 122°49'1 1.5
2014-Sep-23 14:34N 48°51' W 122°47'1 0.7
2014-Sep-23 13:34N 48°51' W 122°48'2 2.2
2014-Sep-23 12:33N 48°50' W 122°46'4 3.9
2014-Sep-23 11:33N 48°46' W 122°45'5 5.3
2014-Sep-23 10:34N 48°41' W 122°42'5 5.1
2014-Sep-23 09:33N 48°36' W 122°45'5 5.4
2014-Sep-23 08:33N 48°31' W 122°44'5 4.7
2014-Sep-23 07:33N 48°26' W 122°44'5 4.0
2014-Sep-23 06:17N 48°21' W 122°45'4 4.2
2014-Sep-23 05:23N 48°17' W 122°47'20 6.3
2014-Sep-23 02:17N 47°59' W 122°35'5 7.4
2014-Sep-23 01:33N 47°56' W 122°29'6 6.4
2014-Sep-23 00:33N 47°49' W 122°27'6 6.3
2014-Sep-22 23:34N 47°43' W 122°26'6 6.3
2014-Sep-22 22:33N 47°37' W 122°24'2 2.0
2014-Sep-22 21:20N 47°35' W 122°21'1 1.3
2014-Sep-22 20:32N 47°34' W 122°21'0 0.0
2014-Sep-22 19:32N 47°34' W 122°21'0 0.0
2014-Sep-22 18:20N 47°34' W 122°21'0 0.0
2014-Sep-22 17:32N 47°34' W 122°21'0 0.0
2014-Sep-22 16:29N 47°34' W 122°21'0 0.0
2014-Sep-22 14:29N 47°34' W 122°21'0 0.0
2014-Sep-22 12:32N 47°34' W 122°21'0 0.0
2014-Sep-22 11:32N 47°34' W 122°21'0 0.0
2014-Sep-22 10:32N 47°34' W 122°21'0 0.0
2014-Sep-22 09:14N 47°34' W 122°21'0 0.0
2014-Sep-22 08:26N 47°34' W 122°21'0 0.0
2014-Sep-22 07:32N 47°34' W 122°21'0 0.0
2014-Sep-22 06:32N 47°34' W 122°21'0 0.0
2014-Sep-22 05:32N 47°34' W 122°21'0 0.0
2014-Sep-22 04:32N 47°34' W 122°21'0 0.0
2014-Sep-22 03:29N 47°34' W 122°21'0 0.0
2014-Sep-22 02:26N 47°34' W 122°21'0 0.0
2014-Sep-22 01:23N 47°34' W 122°21'0 0.0
2014-Sep-22 00:20N 47°34' W 122°21'0 0.0
2014-Sep-21 23:32N 47°34' W 122°21'0 0.0
2014-Sep-21 22:29N 47°34' W 122°21'0 0.0
2014-Sep-21 21:29N 47°34' W 122°21'0 0.0
2014-Sep-21 15:25N 47°34' W 122°21'0 0.0
2014-Sep-21 14:31N 47°34' W 122°21'0 0.0
2014-Sep-21 13:31N 47°34' W 122°21'0 0.0
2014-Sep-21 12:31N 47°34' W 122°21'0 0.0
2014-Sep-21 11:31N 47°34' W 122°21'0 0.0
2014-Sep-21 10:31N 47°34' W 122°21'0 0.0
2014-Sep-21 09:31N 47°34' W 122°21'0 0.0
2014-Sep-21 08:31N 47°34' W 122°21'0 0.0
2014-Sep-21 07:10N 47°34' W 122°21'0 0.0
2014-Sep-21 06:28N 47°34' W 122°21'0 0.0
2014-Sep-21 05:31N 47°34' W 122°21'0 0.0
2014-Sep-21 04:31N 47°34' W 122°21'0 0.0
2014-Sep-21 03:31N 47°34' W 122°21'0 0.0
2014-Sep-21 02:31N 47°34' W 122°21'0 0.0
2014-Sep-21 01:31N 47°34' W 122°21'0 0.0
2014-Sep-21 00:28N 47°34' W 122°21'  

Dump ship's entire track history